createdAt,value
2022-10-22T00:01:20.137Z,15.00
2022-10-22T00:03:47.955Z,15.00
2022-10-22T00:06:15.682Z,17.10
2022-10-22T00:08:43.406Z,16.20
2022-10-22T00:11:16.786Z,15.30
2022-10-22T00:13:44.541Z,17.90
2022-10-22T00:16:12.765Z,18.10
2022-10-22T00:18:40.857Z,14.60
2022-10-22T00:21:08.656Z,14.90
2022-10-22T00:23:36.521Z,15.50
2022-10-22T00:26:04.406Z,14.60
2022-10-22T00:28:32.050Z,13.90
2022-10-22T00:31:01.457Z,14.10
2022-10-22T00:35:57.381Z,14.70
2022-10-22T00:38:25.240Z,14.90
2022-10-22T00:40:53.216Z,15.40
2022-10-22T00:43:21.272Z,16.40
2022-10-22T00:45:49.430Z,16.60
2022-10-22T00:48:30.076Z,13.60
2022-10-22T00:51:08.215Z,14.90
2022-10-22T00:53:41.706Z,14.50
2022-10-22T00:56:10.470Z,14.90
2022-10-22T00:58:45.492Z,17.10
2022-10-22T01:01:36.629Z,12.30
2022-10-22T01:04:06.078Z,14.40
2022-10-22T01:06:34.457Z,15.40
2022-10-22T01:09:35.861Z,14.10
2022-10-22T01:12:21.772Z,13.00
2022-10-22T01:15:20.721Z,11.50
2022-10-22T01:20:51.455Z,11.90
2022-10-22T01:24:07.831Z,12.50
2022-10-22T01:26:50.826Z,12.70
2022-10-22T01:29:57.001Z,14.00
2022-10-22T01:32:29.808Z,14.50
2022-10-22T01:35:12.507Z,14.30
2022-10-22T01:37:48.344Z,14.60
2022-10-22T01:40:20.971Z,11.70
2022-10-22T01:43:08.358Z,13.60
2022-10-22T01:45:40.020Z,12.80
2022-10-22T01:48:10.550Z,11.60
2022-10-22T01:51:04.935Z,14.70
2022-10-22T01:53:50.167Z,13.20
2022-10-22T01:56:36.511Z,10.60
2022-10-22T01:59:10.580Z,15.40
2022-10-22T02:01:54.162Z,12.30
2022-10-22T02:04:21.974Z,13.70
2022-10-22T02:06:53.319Z,12.80
2022-10-22T02:09:26.330Z,13.70
2022-10-22T02:11:56.395Z,14.20
2022-10-22T02:14:27.992Z,11.60
2022-10-22T02:16:57.939Z,13.20
2022-10-22T02:19:46.905Z,14.90
2022-10-22T02:22:14.922Z,15.20
2022-10-22T02:24:42.879Z,11.60
2022-10-22T02:27:36.227Z,12.90
2022-10-22T02:30:11.558Z,14.60
2022-10-22T02:32:50.543Z,12.60
2022-10-22T02:35:22.102Z,15.70
2022-10-22T02:37:51.224Z,15.10
2022-10-22T02:42:49.768Z,12.80
2022-10-22T02:45:21.673Z,12.80
2022-10-22T02:47:51.055Z,11.40
2022-10-22T02:50:20.362Z,13.50
2022-10-22T02:52:47.959Z,11.60
2022-10-22T02:55:15.945Z,13.90
2022-10-22T02:57:43.805Z,14.30
2022-10-22T03:00:12.466Z,11.20
2022-10-22T03:02:40.537Z,11.10
2022-10-22T03:05:08.937Z,14.50
2022-10-22T03:07:36.590Z,12.80
2022-10-22T03:10:05.564Z,11.50
2022-10-22T03:12:33.459Z,14.00
2022-10-22T03:15:01.132Z,11.40
2022-10-22T03:17:32.461Z,12.50
2022-10-22T03:20:00.241Z,12.60
2022-10-22T03:22:32.533Z,12.90
2022-10-22T03:25:04.372Z,14.90
2022-10-22T03:27:32.229Z,15.40
2022-10-22T03:29:59.869Z,13.00
2022-10-22T03:32:27.765Z,12.80
2022-10-22T03:34:55.851Z,13.40
2022-10-22T03:37:26.741Z,11.80
2022-10-22T03:39:55.464Z,13.80
2022-10-22T03:42:24.190Z,15.00
2022-10-22T03:44:52.700Z,13.60
2022-10-22T03:47:20.394Z,11.40
2022-10-22T03:49:48.171Z,14.30
2022-10-22T03:52:17.155Z,16.80
2022-10-22T03:54:45.027Z,15.20
2022-10-22T03:57:13.272Z,11.90
2022-10-22T03:59:43.354Z,13.20
2022-10-22T04:02:12.671Z,13.90
2022-10-22T04:04:40.413Z,16.10
2022-10-22T04:07:09.029Z,13.60
2022-10-22T04:09:37.000Z,13.20
2022-10-22T04:12:07.899Z,14.00
2022-10-22T04:14:35.745Z,12.90
2022-10-22T04:17:03.574Z,12.60
2022-10-22T04:19:31.347Z,14.40
2022-10-22T04:21:59.926Z,14.00
2022-10-22T04:24:31.273Z,14.70
2022-10-22T04:26:59.440Z,14.70
2022-10-22T04:29:27.751Z,15.60
2022-10-22T04:31:55.959Z,12.00
2022-10-22T04:34:27.411Z,12.50
2022-10-22T04:36:55.930Z,11.90
2022-10-22T04:39:23.983Z,12.00
2022-10-22T04:41:51.759Z,14.70
2022-10-22T04:44:19.788Z,13.10
2022-10-22T04:46:47.670Z,12.80
2022-10-22T04:49:15.601Z,14.80
2022-10-22T04:51:43.250Z,13.20
2022-10-22T04:54:11.084Z,15.10
2022-10-22T04:56:39.082Z,12.70
2022-10-22T04:59:09.256Z,15.00
2022-10-22T05:01:42.803Z,13.90
2022-10-22T05:04:14.247Z,14.70
2022-10-22T05:06:42.721Z,14.70
2022-10-22T05:09:16.908Z,14.40
2022-10-22T05:11:48.743Z,13.50
2022-10-22T05:14:24.984Z,15.50
2022-10-22T05:16:53.668Z,14.90
2022-10-22T05:19:27.706Z,14.50
2022-10-22T05:21:58.625Z,14.70
2022-10-22T05:24:27.449Z,13.70
2022-10-22T05:26:57.359Z,14.80
2022-10-22T05:29:26.037Z,15.30
2022-10-22T05:31:54.310Z,15.40
2022-10-22T05:34:22.150Z,14.90
2022-10-22T05:36:50.107Z,14.70
2022-10-22T05:39:17.750Z,19.20
2022-10-22T05:41:45.513Z,17.90
2022-10-22T05:44:13.940Z,17.60
2022-10-22T05:46:43.426Z,17.60
2022-10-22T05:49:14.621Z,14.10
2022-10-22T05:51:42.821Z,14.90
2022-10-22T05:54:20.054Z,15.70
2022-10-22T05:56:49.195Z,13.90
2022-10-22T05:59:16.870Z,15.70
2022-10-22T06:01:44.538Z,12.90
2022-10-22T06:04:13.208Z,12.70
2022-10-22T06:06:42.703Z,14.00
2022-10-22T06:09:33.810Z,17.30
2022-10-22T06:12:02.122Z,12.10
2022-10-22T06:14:32.231Z,14.90
2022-10-22T06:17:00.652Z,13.00
2022-10-22T06:19:32.566Z,14.60
2022-10-22T06:22:00.481Z,13.90
2022-10-22T06:24:28.293Z,17.00
2022-10-22T06:26:56.555Z,14.40
2022-10-22T06:29:24.158Z,17.00
2022-10-22T06:31:52.134Z,14.90
2022-10-22T06:34:20.136Z,17.30
2022-10-22T06:36:48.137Z,19.10
2022-10-22T06:39:17.900Z,16.00
2022-10-22T06:41:45.883Z,14.50
2022-10-22T06:44:19.426Z,14.70
2022-10-22T06:46:53.542Z,17.30
2022-10-22T06:49:21.698Z,18.30
2022-10-22T06:51:51.420Z,15.30
2022-10-22T06:54:20.681Z,17.50
2022-10-22T06:56:50.414Z,17.80
2022-10-22T06:59:18.509Z,16.20
2022-10-22T07:01:46.321Z,20.60
2022-10-22T07:04:14.252Z,15.90
2022-10-22T07:06:42.512Z,16.10
2022-10-22T07:09:10.214Z,17.40
2022-10-22T07:11:43.992Z,17.70
2022-10-22T07:14:12.907Z,16.40
2022-10-22T07:16:43.110Z,17.10
2022-10-22T07:19:10.978Z,16.00
2022-10-22T07:21:39.259Z,15.50
2022-10-22T07:24:07.664Z,18.80
2022-10-22T07:26:35.461Z,15.70
2022-10-22T07:29:06.146Z,17.40
2022-10-22T07:31:34.035Z,16.60
2022-10-22T07:34:02.081Z,18.50
2022-10-22T07:36:30.158Z,18.20
2022-10-22T07:38:59.514Z,15.00
2022-10-22T07:41:29.579Z,17.90
2022-10-22T07:43:58.245Z,17.90
2022-10-22T07:46:26.601Z,18.00
2022-10-22T07:48:54.511Z,17.30
2022-10-22T07:51:22.720Z,17.10
2022-10-22T07:53:50.808Z,16.10
2022-10-22T07:56:18.637Z,17.00
2022-10-22T07:58:47.156Z,19.60
2022-10-22T08:01:15.318Z,20.30
2022-10-22T08:03:43.018Z,18.20
2022-10-22T08:06:14.933Z,20.00
2022-10-22T08:08:45.822Z,19.90
2022-10-22T08:11:16.359Z,17.30
2022-10-22T08:13:45.550Z,19.70
2022-10-22T08:16:14.415Z,18.20
2022-10-22T08:18:42.471Z,17.60
2022-10-22T08:21:11.668Z,15.10
2022-10-22T08:26:07.697Z,18.90
2022-10-22T08:28:37.192Z,16.20
2022-10-22T08:31:07.847Z,18.50
2022-10-22T08:33:36.640Z,18.30
2022-10-22T08:36:05.120Z,17.00
2022-10-22T08:38:33.046Z,19.20
2022-10-22T08:41:10.496Z,17.10
2022-10-22T08:43:50.681Z,19.50
2022-10-22T08:46:55.773Z,20.60
2022-10-22T08:49:27.536Z,20.20
2022-10-22T08:51:58.246Z,22.00
2022-10-22T08:54:50.807Z,19.60
2022-10-22T08:57:27.874Z,19.80
2022-10-22T09:00:05.752Z,19.90
2022-10-22T09:02:46.395Z,19.50
2022-10-22T09:05:23.324Z,18.40
2022-10-22T09:07:53.083Z,22.50
2022-10-22T09:10:27.557Z,22.80
2022-10-22T09:12:55.542Z,20.00
2022-10-22T09:15:23.743Z,19.20
2022-10-22T09:18:14.669Z,20.70
2022-10-22T09:21:00.293Z,19.40
2022-10-22T09:23:37.286Z,21.40
2022-10-22T09:26:13.459Z,22.20
2022-10-22T09:28:41.968Z,23.00
2022-10-22T09:31:14.858Z,23.30
2022-10-22T09:33:44.887Z,23.40
2022-10-22T09:36:18.430Z,21.40
2022-10-22T09:38:51.899Z,21.40
2022-10-22T09:41:23.495Z,24.90
2022-10-22T09:43:52.037Z,22.50
2022-10-22T09:46:24.061Z,23.70
2022-10-22T09:49:01.442Z,22.90
2022-10-22T09:51:56.380Z,19.80
2022-10-22T09:54:37.189Z,23.60
2022-10-22T09:57:14.184Z,25.20
2022-10-22T09:59:43.244Z,22.00
2022-10-22T10:02:44.009Z,19.90
2022-10-22T10:05:21.178Z,22.60
2022-10-22T10:07:49.057Z,18.30
2022-10-22T10:10:27.140Z,29.00
2022-10-22T10:13:21.116Z,33.30
2022-10-22T10:16:12.412Z,32.00
2022-10-22T10:19:02.217Z,27.10
2022-10-22T10:21:54.815Z,28.10
2022-10-22T10:24:44.756Z,27.10
2022-10-22T10:27:26.128Z,28.70
2022-10-22T10:30:06.426Z,26.90
2022-10-22T10:33:11.506Z,20.10
2022-10-22T10:36:02.243Z,22.60
2022-10-22T10:39:05.159Z,23.00
2022-10-22T10:42:01.941Z,20.90
2022-10-22T10:44:52.924Z,21.10
2022-10-22T10:47:51.960Z,19.40
2022-10-22T10:50:52.516Z,20.50
2022-10-22T10:53:36.790Z,23.60
2022-10-22T10:56:07.568Z,22.80
2022-10-22T10:58:47.915Z,25.30
2022-10-22T11:01:28.276Z,24.50
2022-10-22T11:04:02.211Z,25.90
2022-10-22T11:06:37.350Z,22.80
2022-10-22T11:09:52.900Z,20.00
2022-10-22T11:12:39.688Z,20.50
2022-10-22T11:15:40.084Z,22.30
2022-10-22T11:18:17.968Z,19.20
2022-10-22T11:21:13.305Z,19.90
2022-10-22T11:23:53.820Z,18.40
2022-10-22T11:26:56.860Z,16.90
2022-10-22T11:29:32.840Z,17.70
2022-10-22T11:32:03.171Z,18.70
2022-10-22T11:34:44.517Z,17.80
2022-10-22T11:37:14.399Z,18.80
2022-10-22T11:40:13.267Z,19.80
2022-10-22T11:42:52.303Z,19.90
2022-10-22T11:45:28.768Z,19.70
2022-10-22T11:47:56.724Z,18.10
2022-10-22T11:50:43.621Z,16.70
2022-10-22T11:53:14.379Z,15.10
2022-10-22T11:55:48.204Z,15.70
2022-10-22T11:58:28.722Z,15.00
2022-10-22T12:01:12.650Z,13.30
2022-10-22T12:03:44.028Z,14.30
2022-10-22T12:06:15.809Z,14.00
2022-10-22T12:08:49.638Z,12.60
2022-10-22T12:11:20.139Z,12.00
2022-10-22T12:14:28.083Z,14.70
2022-10-22T12:16:58.093Z,13.60
2022-10-22T12:19:46.701Z,13.20
2022-10-22T12:22:27.282Z,11.40
2022-10-22T12:25:01.077Z,13.40
2022-10-22T12:27:40.566Z,14.90
2022-10-22T12:30:22.787Z,10.70
2022-10-22T12:32:56.716Z,10.90
2022-10-22T12:35:27.428Z,10.40
2022-10-22T12:38:12.944Z,10.70
2022-10-22T12:40:45.883Z,10.30
2022-10-22T12:43:19.154Z,11.50
2022-10-22T12:45:49.884Z,12.20
2022-10-22T12:48:22.453Z,11.80
2022-10-22T12:50:54.036Z,12.50
2022-10-22T12:53:30.937Z,12.00
2022-10-22T12:56:05.875Z,11.70
2022-10-22T12:59:02.081Z,13.30
2022-10-22T13:01:37.701Z,11.40
2022-10-22T13:04:22.903Z,13.00
2022-10-22T13:07:12.390Z,24.00
2022-10-22T13:09:42.789Z,15.70
2022-10-22T13:12:16.321Z,15.10
2022-10-22T13:14:46.620Z,14.50
2022-10-22T13:17:19.272Z,13.60
2022-10-22T13:19:53.905Z,17.00
2022-10-22T13:22:52.436Z,14.50
2022-10-22T13:25:26.198Z,14.40
2022-10-22T13:28:01.012Z,16.30
2022-10-22T13:30:32.128Z,14.30
2022-10-22T13:33:02.462Z,13.20
2022-10-22T13:35:33.933Z,13.10
2022-10-22T13:38:02.101Z,14.00
2022-10-22T13:40:32.257Z,13.10
2022-10-22T13:42:59.950Z,11.70
2022-10-22T13:45:27.569Z,13.90
2022-10-22T13:47:55.453Z,12.20
2022-10-22T13:50:23.535Z,17.50
2022-10-22T13:52:54.393Z,11.60
2022-10-22T13:55:25.691Z,15.80
2022-10-22T14:00:59.407Z,15.20
2022-10-22T14:03:32.985Z,15.30
2022-10-22T14:06:01.440Z,16.60
2022-10-22T14:08:29.398Z,15.20
2022-10-22T14:10:57.213Z,18.90
2022-10-22T14:13:25.028Z,15.80
2022-10-22T14:15:53.052Z,16.60
2022-10-22T14:18:28.932Z,16.30
2022-10-22T14:21:00.195Z,17.20
2022-10-22T14:23:30.344Z,14.90
2022-10-22T14:25:59.425Z,20.20
2022-10-22T14:28:27.969Z,17.00
2022-10-22T14:30:55.908Z,16.40
2022-10-22T14:33:30.544Z,21.00
2022-10-22T14:36:01.133Z,19.30
2022-10-22T14:38:29.756Z,15.80
2022-10-22T14:40:59.771Z,17.80
2022-10-22T14:43:30.020Z,16.40
2022-10-22T14:45:58.337Z,15.60
2022-10-22T14:48:26.000Z,15.50
2022-10-22T14:50:55.297Z,15.40
2022-10-22T14:53:23.223Z,13.20
2022-10-22T14:55:52.184Z,14.30
2022-10-22T14:58:19.983Z,14.70
2022-10-22T15:00:47.708Z,15.60
2022-10-22T15:03:15.486Z,14.90
2022-10-22T15:05:45.055Z,12.30
2022-10-22T15:08:14.739Z,12.50
2022-10-22T15:10:42.541Z,13.50
2022-10-22T15:13:10.214Z,14.80
2022-10-22T15:15:41.246Z,12.50
2022-10-22T15:18:08.929Z,13.00
2022-10-22T15:20:36.643Z,14.30
2022-10-22T15:23:04.590Z,13.00
2022-10-22T15:25:32.451Z,13.80
2022-10-22T15:28:07.444Z,15.10
2022-10-22T15:30:37.125Z,14.70
2022-10-22T15:33:05.409Z,13.60
2022-10-22T15:35:33.172Z,14.50
2022-10-22T15:38:00.953Z,15.40
2022-10-22T15:40:28.778Z,15.70
2022-10-22T15:42:58.632Z,15.80
2022-10-22T15:45:26.406Z,15.20
2022-10-22T15:47:54.005Z,15.40
2022-10-22T15:50:21.929Z,15.80
2022-10-22T15:52:50.329Z,15.80
2022-10-22T15:55:19.099Z,17.90
2022-10-22T15:57:46.920Z,13.60
2022-10-22T16:00:15.095Z,15.90
2022-10-22T16:02:43.691Z,15.40
2022-10-22T16:05:11.354Z,15.10
2022-10-22T16:07:39.281Z,21.30
2022-10-22T16:10:07.943Z,19.60
2022-10-22T16:12:36.139Z,23.20
2022-10-22T16:15:04.264Z,22.20
2022-10-22T16:17:32.155Z,22.80
2022-10-22T16:20:00.936Z,21.90
2022-10-22T16:27:26.135Z,19.50
2022-10-22T16:29:54.131Z,19.20
2022-10-22T16:32:22.142Z,16.70
2022-10-22T16:34:49.748Z,19.10
2022-10-22T16:37:17.468Z,15.80
2022-10-22T16:39:46.099Z,20.10
2022-10-22T16:42:13.738Z,17.50
2022-10-22T16:44:41.379Z,18.50
2022-10-22T16:47:09.095Z,18.20
2022-10-22T16:49:36.694Z,17.50
2022-10-22T16:52:04.712Z,17.60
2022-10-22T16:54:32.418Z,17.30
2022-10-22T16:57:00.079Z,18.70
2022-10-22T16:59:28.110Z,21.90
2022-10-22T17:01:56.212Z,16.90
2022-10-22T17:04:23.908Z,16.20
2022-10-22T17:06:51.874Z,15.60
2022-10-22T17:09:19.684Z,17.90
2022-10-22T17:11:47.464Z,17.20
2022-10-22T17:14:15.295Z,15.70
2022-10-22T17:16:43.492Z,17.10
2022-10-22T17:19:14.221Z,17.30
2022-10-22T17:21:42.692Z,16.60
2022-10-22T17:24:10.715Z,16.00
2022-10-22T17:26:38.401Z,16.80
2022-10-22T17:29:06.474Z,17.60
2022-10-22T17:31:39.289Z,20.60
2022-10-22T17:34:14.761Z,20.50
2022-10-22T17:36:43.341Z,22.00
2022-10-22T17:39:15.629Z,19.20
2022-10-22T17:41:43.248Z,20.40
2022-10-22T17:44:12.459Z,18.10
2022-10-22T17:49:20.398Z,17.60
2022-10-22T17:51:48.428Z,21.10
2022-10-22T17:54:16.177Z,17.00
2022-10-22T17:56:44.281Z,18.40
2022-10-22T17:59:14.411Z,17.20
2022-10-22T18:01:45.833Z,14.90
2022-10-22T18:04:16.607Z,14.60
2022-10-22T18:06:46.921Z,15.60
2022-10-22T18:09:18.597Z,14.10
2022-10-22T18:11:48.989Z,15.50
2022-10-22T18:14:18.541Z,13.50
2022-10-22T18:16:49.985Z,13.90
2022-10-22T18:19:23.258Z,13.60
2022-10-22T18:21:51.253Z,14.10
2022-10-22T18:24:19.244Z,13.40
2022-10-22T18:26:46.952Z,16.10
2022-10-22T18:29:18.141Z,11.40
2022-10-22T18:31:47.049Z,11.60
2022-10-22T18:34:17.639Z,16.50
2022-10-22T18:36:48.170Z,14.70
2022-10-22T18:39:16.149Z,15.90
2022-10-22T18:41:43.861Z,33.00
2022-10-22T18:44:14.272Z,24.20
2022-10-22T18:46:41.971Z,18.20
2022-10-22T18:49:15.847Z,14.20
2022-10-22T18:51:44.258Z,14.80
2022-10-22T18:54:22.517Z,13.10
2022-10-22T18:56:52.628Z,12.60
2022-10-22T19:01:54.024Z,15.60
2022-10-22T19:04:21.838Z,13.10
2022-10-22T19:06:49.523Z,12.20
2022-10-22T19:09:17.702Z,14.80
2022-10-22T19:11:45.899Z,12.60
2022-10-22T19:14:15.041Z,13.10
2022-10-22T19:19:11.711Z,12.40
2022-10-22T19:21:39.381Z,12.20
2022-10-22T19:24:07.419Z,11.00
2022-10-22T19:26:35.126Z,12.90
2022-10-22T19:29:03.565Z,13.00
2022-10-22T19:31:32.102Z,10.50
2022-10-22T19:34:01.483Z,15.10
2022-10-22T19:36:31.788Z,14.30
2022-10-22T19:39:00.520Z,12.40
2022-10-22T19:41:29.436Z,14.70
2022-10-22T19:43:58.367Z,14.00
2022-10-22T19:46:29.826Z,14.30
2022-10-22T19:48:57.600Z,15.80
2022-10-22T19:51:27.864Z,13.00
2022-10-22T19:54:00.392Z,12.80
2022-10-22T19:56:28.310Z,14.30
2022-10-22T19:58:56.172Z,14.20
2022-10-22T20:01:24.686Z,16.30
2022-10-22T20:03:53.253Z,16.20
2022-10-22T20:06:21.966Z,14.00
2022-10-22T20:08:52.376Z,16.80
2022-10-22T20:11:26.864Z,12.80
2022-10-22T20:13:55.149Z,14.40
2022-10-22T20:16:26.004Z,14.70
2022-10-22T20:18:53.966Z,14.60
2022-10-22T20:21:21.994Z,12.30
2022-10-22T20:23:53.127Z,12.20
2022-10-22T20:26:23.881Z,11.10
2022-10-22T20:28:52.054Z,12.10
2022-10-22T20:31:22.732Z,14.60
2022-10-22T20:33:51.218Z,11.00
2022-10-22T20:36:21.849Z,12.20
2022-10-22T20:38:50.870Z,14.60
2022-10-22T20:41:21.689Z,11.70
2022-10-22T20:43:51.912Z,11.60
2022-10-22T20:46:32.047Z,13.10
2022-10-22T20:49:10.111Z,12.90
2022-10-22T20:51:38.438Z,11.50
2022-10-22T20:54:08.024Z,13.20
2022-10-22T20:56:37.997Z,14.30
2022-10-22T20:59:08.275Z,12.30
2022-10-22T21:01:40.249Z,11.50
2022-10-22T21:04:08.343Z,13.80
2022-10-22T21:06:40.456Z,13.20
2022-10-22T21:09:09.792Z,12.60
2022-10-22T21:11:39.126Z,12.40
2022-10-22T21:16:35.699Z,11.30
2022-10-22T21:19:03.659Z,10.20
2022-10-22T21:21:31.609Z,11.30
2022-10-22T21:23:59.259Z,11.10
2022-10-22T21:26:27.152Z,13.60
2022-10-22T21:28:54.951Z,13.00
2022-10-22T21:31:26.138Z,12.30
2022-10-22T21:33:54.044Z,13.10
2022-10-22T21:36:23.632Z,12.90
2022-10-22T21:38:52.651Z,14.30
2022-10-22T21:41:22.693Z,11.60
2022-10-22T21:43:51.034Z,12.50
2022-10-22T21:46:24.122Z,14.50
2022-10-22T21:49:02.191Z,14.20
2022-10-22T21:51:32.980Z,13.30
2022-10-22T21:54:01.048Z,13.60
2022-10-22T21:56:32.734Z,12.90
2022-10-22T21:59:01.860Z,12.90
2022-10-22T22:03:57.465Z,12.30
2022-10-22T22:06:29.550Z,16.50
2022-10-22T22:08:59.098Z,12.60
2022-10-22T22:11:28.029Z,14.40
2022-10-22T22:16:30.531Z,13.10
2022-10-22T22:19:00.182Z,15.10
2022-10-22T22:21:28.694Z,16.00
2022-10-22T22:23:57.899Z,14.50
2022-10-22T22:29:00.117Z,15.20
2022-10-22T22:31:33.078Z,15.20
2022-10-22T22:34:12.870Z,15.10
2022-10-22T22:36:43.473Z,15.70
2022-10-22T22:39:17.477Z,15.10
2022-10-22T22:41:46.785Z,16.10
2022-10-22T22:44:14.834Z,12.60
2022-10-22T22:46:43.204Z,14.30
2022-10-22T22:49:12.540Z,14.20
2022-10-22T22:51:41.121Z,13.40
2022-10-22T22:54:09.803Z,14.70
2022-10-22T22:56:38.312Z,13.10
2022-10-22T22:59:06.559Z,15.30
2022-10-22T23:01:37.044Z,15.10
2022-10-22T23:04:07.727Z,13.40
2022-10-22T23:06:37.959Z,16.40
2022-10-22T23:09:08.579Z,17.20
2022-10-22T23:11:37.161Z,17.30
2022-10-22T23:14:06.783Z,16.30
2022-10-22T23:16:37.145Z,15.60
2022-10-22T23:19:05.860Z,16.50
2022-10-22T23:21:40.447Z,16.60
2022-10-22T23:24:11.204Z,17.20
2022-10-22T23:26:46.803Z,15.30
2022-10-22T23:29:20.602Z,15.50
2022-10-22T23:31:49.674Z,14.90
2022-10-22T23:34:22.799Z,14.90
2022-10-22T23:36:51.556Z,16.10
2022-10-22T23:39:22.502Z,15.10
2022-10-22T23:41:51.572Z,15.40
2022-10-22T23:44:22.018Z,15.50
2022-10-22T23:46:51.298Z,13.40
2022-10-22T23:49:20.049Z,16.00
2022-10-22T23:51:48.098Z,14.80
2022-10-22T23:54:17.842Z,14.00
2022-10-22T23:56:45.881Z,15.70
